createdAt,value
2023-03-19T00:03:07.257Z,77.81
2023-03-19T00:06:35.036Z,78.45
2023-03-19T00:10:03.076Z,78.34
2023-03-19T00:13:30.920Z,80.52
2023-03-19T00:16:58.893Z,80.78
2023-03-19T00:20:08.609Z,80.23
2023-03-19T00:23:36.333Z,79.45
2023-03-19T00:27:04.308Z,81.25
2023-03-19T00:30:32.301Z,80.89
2023-03-19T00:34:00.213Z,79.75
2023-03-19T00:37:28.200Z,80.38
2023-03-19T00:40:56.351Z,81.19
2023-03-19T00:44:24.337Z,78.54
2023-03-19T00:47:52.047Z,80.82
2023-03-19T00:51:00.924Z,81.21
2023-03-19T00:54:29.204Z,80.56
2023-03-19T00:57:57.388Z,81.24
2023-03-19T01:01:25.344Z,81.05
2023-03-19T01:04:52.978Z,80.31
2023-03-19T01:08:20.908Z,81.29
2023-03-19T01:11:29.795Z,81.39
2023-03-19T01:14:37.752Z,80.79
2023-03-19T01:17:27.421Z,81.04
2023-03-19T01:20:55.298Z,80.63
2023-03-19T01:24:26.188Z,81.14
2023-03-19T01:27:54.213Z,80.96
2023-03-19T01:31:22.230Z,80.94
2023-03-19T01:35:01.931Z,80.70
2023-03-19T01:38:09.866Z,81.23
2023-03-19T01:41:37.663Z,82.35
2023-03-19T01:44:45.488Z,81.68
2023-03-19T01:48:25.655Z,81.65
2023-03-19T01:51:54.013Z,82.51
2023-03-19T01:55:24.774Z,83.34
2023-03-19T01:58:58.900Z,83.65
2023-03-19T02:02:26.688Z,84.57
2023-03-19T02:06:06.448Z,83.94
2023-03-19T02:09:34.470Z,85.02
2023-03-19T02:12:43.248Z,86.05
2023-03-19T02:16:11.185Z,85.77
2023-03-19T02:19:39.211Z,85.63
2023-03-19T02:23:07.197Z,85.57
2023-03-19T02:25:56.717Z,85.32
2023-03-19T02:29:05.653Z,83.69
2023-03-19T02:32:33.614Z,85.05
2023-03-19T02:36:01.556Z,85.22
2023-03-19T02:39:11.832Z,84.37
2023-03-19T02:42:39.776Z,84.83
2023-03-19T02:45:48.902Z,84.71
2023-03-19T02:49:17.052Z,84.35
2023-03-19T02:52:44.992Z,83.82
2023-03-19T02:56:12.943Z,84.82
2023-03-19T02:59:40.697Z,84.69
2023-03-19T03:02:48.734Z,84.21
2023-03-19T03:06:16.601Z,84.56
2023-03-19T03:09:44.826Z,83.74
2023-03-19T03:13:12.661Z,83.95
2023-03-19T03:16:40.663Z,83.05
2023-03-19T03:20:08.713Z,83.54
2023-03-19T03:23:17.101Z,83.29
2023-03-19T03:26:26.005Z,83.68
2023-03-19T03:29:53.942Z,82.69
2023-03-19T03:33:21.597Z,82.35
2023-03-19T03:36:49.733Z,82.38
2023-03-19T03:40:17.765Z,82.37
2023-03-19T03:43:46.581Z,81.87
2023-03-19T03:46:36.032Z,81.24
2023-03-19T03:50:04.014Z,82.21
2023-03-19T03:53:32.012Z,82.34
2023-03-19T03:56:39.987Z,82.44
2023-03-19T04:00:08.132Z,83.10
2023-03-19T04:03:36.120Z,83.13
2023-03-19T04:07:03.865Z,82.30
2023-03-19T04:10:35.119Z,82.42
2023-03-19T04:14:02.904Z,82.27
2023-03-19T04:17:11.290Z,82.59
2023-03-19T04:20:39.806Z,81.92
2023-03-19T04:23:48.013Z,82.42
2023-03-19T04:27:16.284Z,81.86
2023-03-19T04:30:44.363Z,81.13
2023-03-19T04:34:12.205Z,80.47
2023-03-19T04:37:21.357Z,79.45
2023-03-19T04:40:49.310Z,79.10
2023-03-19T04:44:17.376Z,79.15
2023-03-19T04:47:26.164Z,78.64
2023-03-19T04:50:54.110Z,78.25
2023-03-19T04:53:46.099Z,78.11
2023-03-19T04:57:14.420Z,77.79
2023-03-19T05:00:42.481Z,78.53
2023-03-19T05:04:09.165Z,78.45
2023-03-19T05:07:37.090Z,79.47
2023-03-19T05:11:05.032Z,79.62
2023-03-19T05:14:41.913Z,80.22
2023-03-19T05:18:08.654Z,81.41
2023-03-19T05:21:36.822Z,81.41
2023-03-19T05:25:04.772Z,81.46
2023-03-19T05:28:32.736Z,81.77
2023-03-19T05:32:00.762Z,81.68
2023-03-19T05:35:28.790Z,81.48
2023-03-19T05:38:59.721Z,81.28
2023-03-19T05:42:27.578Z,80.91
2023-03-19T05:45:55.333Z,80.40
2023-03-19T05:49:04.731Z,79.98
2023-03-19T05:51:33.494Z,79.52
2023-03-19T05:54:42.536Z,78.82
2023-03-19T05:58:13.579Z,78.89
2023-03-19T06:01:41.546Z,78.71
2023-03-19T06:05:09.564Z,78.04
2023-03-19T06:08:19.490Z,77.80
2023-03-19T06:11:33.213Z,76.77
2023-03-19T06:14:38.274Z,75.83
2023-03-19T06:18:06.105Z,75.14
2023-03-19T06:21:15.054Z,74.61
2023-03-19T06:24:42.988Z,73.89
2023-03-19T06:28:11.086Z,71.92
2023-03-19T06:31:38.855Z,72.16
2023-03-19T06:35:12.806Z,71.22
2023-03-19T06:38:40.652Z,69.78
2023-03-19T06:42:08.643Z,68.86
2023-03-19T06:45:17.189Z,68.32
2023-03-19T06:48:45.522Z,66.80
2023-03-19T06:51:53.566Z,66.13
2023-03-19T06:55:21.580Z,65.38
2023-03-19T06:58:49.624Z,64.13
2023-03-19T07:01:41.636Z,63.74
2023-03-19T07:04:50.694Z,64.08
2023-03-19T07:07:20.565Z,63.47
2023-03-19T07:10:48.713Z,62.86
2023-03-19T07:14:16.767Z,63.60
2023-03-19T07:17:25.805Z,62.33
2023-03-19T07:20:34.655Z,61.90
2023-03-19T07:24:02.691Z,62.05
2023-03-19T07:27:30.454Z,60.75
2023-03-19T07:30:58.521Z,61.05
2023-03-19T07:34:08.699Z,61.18
2023-03-19T07:36:56.885Z,60.25
2023-03-19T07:40:24.803Z,59.72
2023-03-19T07:43:52.819Z,59.98
2023-03-19T07:47:28.873Z,59.53
2023-03-19T07:50:48.770Z,60.32
2023-03-19T07:53:57.722Z,59.10
2023-03-19T07:57:05.687Z,58.11
2023-03-19T07:59:55.354Z,56.79
2023-03-19T08:03:23.291Z,56.46
2023-03-19T08:06:32.194Z,55.79
2023-03-19T08:09:40.742Z,56.15
2023-03-19T08:12:49.950Z,55.00
2023-03-19T08:16:17.934Z,54.36
2023-03-19T08:19:45.958Z,54.19
2023-03-19T08:23:14.062Z,53.59
2023-03-19T08:26:42.398Z,51.02
2023-03-19T08:29:31.474Z,51.37
2023-03-19T08:32:39.530Z,50.01
2023-03-19T08:35:08.355Z,49.34
2023-03-19T08:38:36.352Z,49.12
2023-03-19T08:41:45.715Z,50.18
2023-03-19T08:45:14.021Z,48.06
2023-03-19T08:48:42.048Z,47.91
2023-03-19T08:52:10.052Z,47.44
2023-03-19T08:54:59.636Z,46.87
2023-03-19T08:58:27.735Z,46.55
2023-03-19T09:01:56.222Z,45.27
2023-03-19T09:04:44.920Z,45.11
2023-03-19T09:08:12.926Z,45.84
2023-03-19T09:11:40.983Z,43.27
2023-03-19T09:14:50.167Z,41.47
2023-03-19T09:17:59.186Z,40.63
2023-03-19T09:21:27.203Z,40.62
2023-03-19T09:24:55.075Z,39.92
2023-03-19T09:28:23.061Z,40.17
2023-03-19T09:31:35.281Z,39.73
2023-03-19T09:35:03.379Z,39.60
2023-03-19T09:38:31.704Z,39.61
2023-03-19T09:41:05.506Z,38.97
2023-03-19T09:44:14.404Z,39.11
2023-03-19T09:47:42.590Z,38.94
2023-03-19T09:50:52.336Z,39.50
2023-03-19T09:54:02.042Z,39.89
2023-03-19T09:57:30.254Z,40.10
2023-03-19T10:00:00.047Z,39.08
2023-03-19T10:02:48.727Z,39.79
2023-03-19T10:05:33.109Z,40.24
2023-03-19T10:09:00.304Z,38.39
2023-03-19T10:12:10.474Z,39.34
2023-03-19T10:15:35.611Z,37.71
2023-03-19T10:18:40.898Z,36.47
2023-03-19T10:21:09.830Z,36.63
2023-03-19T10:23:37.823Z,36.04
2023-03-19T10:26:06.248Z,35.76
2023-03-19T10:28:55.137Z,36.74
2023-03-19T10:31:43.270Z,35.85
2023-03-19T10:34:32.397Z,36.78
2023-03-19T10:37:26.613Z,35.39
2023-03-19T10:40:54.871Z,35.85
2023-03-19T10:43:27.060Z,35.29
2023-03-19T10:46:17.080Z,34.54
2023-03-19T10:49:45.092Z,34.66
2023-03-19T10:53:13.432Z,33.05
2023-03-19T10:56:41.711Z,32.16
2023-03-19T10:59:52.002Z,31.63
2023-03-19T11:03:00.845Z,31.85
2023-03-19T11:06:28.788Z,30.88
2023-03-19T11:09:56.729Z,30.32
2023-03-19T11:13:24.834Z,29.80
2023-03-19T11:16:52.883Z,29.59
2023-03-19T11:20:01.142Z,30.12
2023-03-19T11:22:49.242Z,30.19
2023-03-19T11:25:20.434Z,29.95
2023-03-19T11:28:28.833Z,29.77
2023-03-19T11:31:57.403Z,29.60
2023-03-19T11:35:05.991Z,28.67
2023-03-19T11:38:15.873Z,28.71
2023-03-19T11:41:05.496Z,28.87
2023-03-19T11:44:33.540Z,29.28
2023-03-19T11:47:02.924Z,29.24
2023-03-19T11:49:32.031Z,29.55
2023-03-19T11:52:59.991Z,29.94
2023-03-19T11:55:49.510Z,30.28
2023-03-19T11:58:57.585Z,29.81
2023-03-19T12:02:25.616Z,30.03
2023-03-19T12:05:13.877Z,29.41
2023-03-19T12:08:23.632Z,30.17
2023-03-19T12:11:34.234Z,30.11
2023-03-19T12:14:42.291Z,29.45
2023-03-19T12:18:10.386Z,29.42
2023-03-19T12:21:38.382Z,29.72
2023-03-19T12:24:46.649Z,29.58
2023-03-19T12:27:55.190Z,28.67
2023-03-19T12:31:03.395Z,28.69
2023-03-19T12:33:47.690Z,28.78
2023-03-19T12:36:17.647Z,28.76
2023-03-19T12:39:47.951Z,28.41
2023-03-19T12:42:16.423Z,27.93
2023-03-19T12:44:48.722Z,27.94
2023-03-19T12:48:16.800Z,28.15
2023-03-19T12:51:05.459Z,26.97
2023-03-19T12:53:34.566Z,27.34
2023-03-19T12:56:04.233Z,26.76
2023-03-19T12:59:32.262Z,26.34
2023-03-19T13:02:02.617Z,26.53
2023-03-19T13:04:31.376Z,26.94
2023-03-19T13:07:00.155Z,27.33
2023-03-19T13:09:48.132Z,27.02
2023-03-19T13:12:38.307Z,26.16
2023-03-19T13:15:26.389Z,26.43
2023-03-19T13:17:54.947Z,26.36
2023-03-19T13:20:23.711Z,26.14
2023-03-19T13:22:55.465Z,26.52
2023-03-19T13:26:03.524Z,26.65
2023-03-19T13:28:53.572Z,27.00
2023-03-19T13:32:01.784Z,27.49
2023-03-19T13:34:50.428Z,27.65
2023-03-19T13:37:58.675Z,28.23
2023-03-19T13:40:27.121Z,28.31
2023-03-19T13:43:55.005Z,28.45
2023-03-19T13:46:24.076Z,28.06
2023-03-19T13:48:54.515Z,27.35
2023-03-19T13:52:17.790Z,26.51
2023-03-19T13:55:08.183Z,26.35
2023-03-19T13:57:38.789Z,25.39
2023-03-19T14:00:47.371Z,25.18
2023-03-19T14:03:54.368Z,25.61
2023-03-19T14:07:18.804Z,26.17
2023-03-19T14:10:27.520Z,26.14
2023-03-19T14:13:16.006Z,26.21
2023-03-19T14:16:44.329Z,25.35
2023-03-19T14:19:52.961Z,25.09
2023-03-19T14:23:01.836Z,24.58
2023-03-19T14:25:30.726Z,24.22
2023-03-19T14:28:39.979Z,23.52
2023-03-19T14:31:48.462Z,23.27
2023-03-19T14:34:58.309Z,23.25
2023-03-19T14:37:46.545Z,22.78
2023-03-19T14:40:34.959Z,22.93
2023-03-19T14:43:09.528Z,22.66
2023-03-19T14:45:57.713Z,22.59
2023-03-19T14:48:26.959Z,22.91
2023-03-19T14:51:23.228Z,22.59
2023-03-19T14:53:57.451Z,22.85
2023-03-19T14:56:47.182Z,22.62
2023-03-19T14:59:17.401Z,22.35
2023-03-19T15:01:45.687Z,22.55
2023-03-19T15:04:14.014Z,22.38
2023-03-19T15:07:22.175Z,21.90
2023-03-19T15:10:32.202Z,21.94
2023-03-19T15:13:16.205Z,21.61
2023-03-19T15:16:28.327Z,21.60
2023-03-19T15:19:14.065Z,21.46
2023-03-19T15:21:48.689Z,21.46
2023-03-19T15:24:18.600Z,21.57
2023-03-19T15:27:47.079Z,21.72
2023-03-19T15:31:14.481Z,21.58
2023-03-19T15:33:53.403Z,21.69
2023-03-19T15:36:49.400Z,21.80
2023-03-19T15:39:37.978Z,22.39
2023-03-19T15:42:47.187Z,23.14
2023-03-19T15:45:56.439Z,23.62
2023-03-19T15:49:06.059Z,23.66
2023-03-19T15:52:22.248Z,23.55
2023-03-19T15:55:08.161Z,23.82
2023-03-19T15:58:20.416Z,23.89
2023-03-19T16:01:44.240Z,24.35
2023-03-19T16:05:21.801Z,24.80
2023-03-19T16:08:40.416Z,24.95
2023-03-19T16:11:34.304Z,25.73
2023-03-19T16:14:46.137Z,25.83
2023-03-19T16:17:37.256Z,26.44
2023-03-19T16:20:25.589Z,26.94
2023-03-19T16:23:00.346Z,27.24
2023-03-19T16:26:05.189Z,28.00
2023-03-19T16:29:14.378Z,28.44
2023-03-19T16:32:23.904Z,29.14
2023-03-19T16:35:14.544Z,29.60
2023-03-19T16:38:21.778Z,30.23
2023-03-19T16:41:31.683Z,30.20
2023-03-19T16:44:43.990Z,31.01
2023-03-19T16:47:43.987Z,31.26
2023-03-19T16:50:54.042Z,31.57
2023-03-19T16:54:04.033Z,32.47
2023-03-19T16:56:59.920Z,32.93
2023-03-19T17:00:00.826Z,33.20
2023-03-19T17:03:28.823Z,33.85
2023-03-19T17:06:37.074Z,34.63
2023-03-19T17:10:05.515Z,34.59
2023-03-19T17:13:13.756Z,35.26
2023-03-19T17:16:42.575Z,35.53
2023-03-19T17:19:59.196Z,36.31
2023-03-19T17:23:08.797Z,36.38
2023-03-19T17:26:36.838Z,36.43
2023-03-19T17:30:01.210Z,37.08
2023-03-19T17:32:54.293Z,37.31
2023-03-19T17:36:04.732Z,37.58
2023-03-19T17:39:14.078Z,37.90
2023-03-19T17:42:42.355Z,38.72
2023-03-19T17:46:05.780Z,38.13
2023-03-19T17:49:33.937Z,38.84
2023-03-19T17:53:01.990Z,39.51
2023-03-19T17:56:30.359Z,41.71
2023-03-19T17:59:34.157Z,39.43
2023-03-19T18:03:02.453Z,40.26
2023-03-19T18:06:30.724Z,40.28
2023-03-19T18:09:59.170Z,41.84
2023-03-19T18:12:28.473Z,42.56
2023-03-19T18:15:17.474Z,41.79
2023-03-19T18:18:45.529Z,41.66
2023-03-19T18:22:13.798Z,41.78
2023-03-19T18:25:42.267Z,41.76
2023-03-19T18:29:10.402Z,41.42
2023-03-19T18:32:18.705Z,41.82
2023-03-19T18:35:47.172Z,42.27
2023-03-19T18:39:17.915Z,42.27
2023-03-19T18:42:26.952Z,42.86
2023-03-19T18:45:43.343Z,42.94
2023-03-19T18:49:11.239Z,43.88
2023-03-19T18:52:28.307Z,45.09
2023-03-19T18:55:56.205Z,44.68
2023-03-19T18:59:24.231Z,46.07
2023-03-19T19:02:52.392Z,47.23
2023-03-19T19:06:21.294Z,48.52
2023-03-19T19:09:45.207Z,48.44
2023-03-19T19:12:53.699Z,48.24
2023-03-19T19:16:02.841Z,49.10
2023-03-19T19:19:30.882Z,49.22
2023-03-19T19:22:58.761Z,47.45
2023-03-19T19:26:26.787Z,47.09
2023-03-19T19:29:55.018Z,47.57
2023-03-19T19:33:24.386Z,46.90
2023-03-19T19:36:53.112Z,46.79
2023-03-19T19:40:21.374Z,47.58
2023-03-19T19:43:49.365Z,49.85
2023-03-19T19:47:17.680Z,50.16
2023-03-19T19:50:45.813Z,49.93
2023-03-19T19:54:13.882Z,49.69
2023-03-19T19:57:42.083Z,48.85
2023-03-19T20:01:10.371Z,48.33
2023-03-19T20:04:18.665Z,48.44
2023-03-19T20:07:46.816Z,48.51
2023-03-19T20:11:15.198Z,49.14
2023-03-19T20:14:43.562Z,49.52
2023-03-19T20:18:11.541Z,49.60
2023-03-19T20:21:40.257Z,49.60
2023-03-19T20:25:08.412Z,49.39
2023-03-19T20:28:36.919Z,49.45
2023-03-19T20:31:29.338Z,49.52
2023-03-19T20:34:57.357Z,50.22
2023-03-19T20:38:25.403Z,50.31
2023-03-19T20:41:53.819Z,50.62
2023-03-19T20:45:02.378Z,50.32
2023-03-19T20:48:30.630Z,48.78
2023-03-19T20:51:58.971Z,50.50
2023-03-19T20:55:27.118Z,50.98
2023-03-19T20:58:55.790Z,52.45
2023-03-19T21:02:23.943Z,53.37
2023-03-19T21:05:51.945Z,52.50
2023-03-19T21:09:20.095Z,53.43
2023-03-19T21:12:48.355Z,53.41
2023-03-19T21:15:39.415Z,53.64
2023-03-19T21:19:07.489Z,52.14
2023-03-19T21:22:35.477Z,54.07
2023-03-19T21:25:51.396Z,54.42
2023-03-19T21:29:19.355Z,54.74
2023-03-19T21:32:47.527Z,55.59
2023-03-19T21:36:15.624Z,54.37
2023-03-19T21:39:43.680Z,54.45
2023-03-19T21:43:11.634Z,54.39
2023-03-19T21:46:40.600Z,55.07
2023-03-19T21:50:08.549Z,54.96
2023-03-19T21:53:36.639Z,55.07
2023-03-19T21:57:04.714Z,54.18
2023-03-19T22:00:32.793Z,54.62
2023-03-19T22:03:56.867Z,54.75
2023-03-19T22:07:24.846Z,55.54
2023-03-19T22:10:33.374Z,55.02
2023-03-19T22:14:01.340Z,55.47
2023-03-19T22:17:29.467Z,55.56
2023-03-19T22:20:39.632Z,55.58
2023-03-19T22:24:07.509Z,56.60
2023-03-19T22:27:36.030Z,57.39
2023-03-19T22:31:04.102Z,58.46
2023-03-19T22:34:32.293Z,59.06
2023-03-19T22:38:00.298Z,59.53
2023-03-19T22:41:10.391Z,60.16
2023-03-19T22:44:38.918Z,60.35
2023-03-19T22:47:27.872Z,61.10
2023-03-19T22:50:44.535Z,60.85
2023-03-19T22:54:12.511Z,61.08
2023-03-19T22:57:36.734Z,61.53
2023-03-19T23:01:04.873Z,62.03
2023-03-19T23:04:02.853Z,60.63
2023-03-19T23:07:30.777Z,59.57
2023-03-19T23:10:59.127Z,61.17
2023-03-19T23:14:30.262Z,60.64
2023-03-19T23:17:55.595Z,62.92
2023-03-19T23:21:24.103Z,63.59
2023-03-19T23:24:36.088Z,64.40
2023-03-19T23:28:04.143Z,64.96
2023-03-19T23:31:32.325Z,63.44
2023-03-19T23:35:01.858Z,63.84
2023-03-19T23:38:29.536Z,64.14
2023-03-19T23:41:57.723Z,65.33
2023-03-19T23:45:25.736Z,66.06
2023-03-19T23:48:53.780Z,67.00
2023-03-19T23:52:21.811Z,66.44
2023-03-19T23:55:49.724Z,67.52
2023-03-19T23:59:17.953Z,67.03
